createdAt,value
2018-09-05T00:02:24.351Z,99137.80
2018-09-05T00:04:52.635Z,99139.61
2018-09-05T00:07:20.936Z,99139.61
2018-09-05T00:09:49.178Z,99140.09
2018-09-05T00:12:17.461Z,99134.42
2018-09-05T00:14:45.731Z,99139.27
2018-09-05T00:17:14.042Z,99134.91
2018-09-05T00:19:42.327Z,99133.22
2018-09-05T00:22:10.623Z,99131.42
2018-09-05T00:24:39.305Z,99130.56
2018-09-05T00:27:07.582Z,99127.43
2018-09-05T00:29:35.838Z,99123.54
2018-09-05T00:32:04.214Z,99119.69
2018-09-05T00:34:32.482Z,99120.53
2018-09-05T00:37:00.774Z,99115.70
2018-09-05T00:39:29.054Z,99119.69
2018-09-05T00:41:57.347Z,99115.35
2018-09-05T00:44:25.614Z,99115.00
2018-09-05T00:46:53.917Z,99116.34
2018-09-05T00:49:22.163Z,99111.02
2018-09-05T00:51:50.459Z,99106.17
2018-09-05T00:54:18.709Z,99111.49
2018-09-05T00:56:47.019Z,99110.16
2018-09-05T00:59:15.331Z,99108.45
2018-09-05T01:01:43.588Z,99108.45
2018-09-05T01:04:11.929Z,99107.64
2018-09-05T01:06:40.218Z,99105.45
2018-09-05T01:09:08.992Z,99103.78
2018-09-05T01:11:37.434Z,99111.76
2018-09-05T01:14:05.949Z,99109.09
2018-09-05T01:16:34.282Z,99113.56
2018-09-05T01:19:02.622Z,99118.88
2018-09-05T01:21:31.042Z,99116.35
2018-09-05T01:23:59.325Z,99119.01
2018-09-05T01:26:27.611Z,99119.83
2018-09-05T01:28:55.937Z,99116.83
2018-09-05T01:31:24.347Z,99123.00
2018-09-05T01:33:52.631Z,99121.29
2018-09-05T01:36:20.931Z,99119.96
2018-09-05T01:38:49.269Z,99113.83
2018-09-05T01:41:17.533Z,99118.63
2018-09-05T01:43:46.598Z,99114.78
2018-09-05T01:46:14.869Z,99116.95
2018-09-05T01:48:43.151Z,99118.41
2018-09-05T01:51:11.545Z,99112.72
2018-09-05T01:53:39.838Z,99117.09
2018-09-05T01:56:08.158Z,99115.76
2018-09-05T01:58:36.464Z,99118.89
2018-09-05T02:01:04.913Z,99117.22
2018-09-05T02:03:33.256Z,99115.04
2018-09-05T02:06:01.543Z,99118.04
2018-09-05T02:08:29.924Z,99117.70
2018-09-05T02:10:58.167Z,99114.69
2018-09-05T02:13:26.545Z,99116.50
2018-09-05T02:15:54.805Z,99119.50
2018-09-05T02:18:23.215Z,99117.83
2018-09-05T02:20:51.498Z,99116.02
2018-09-05T02:23:19.836Z,99118.30
2018-09-05T02:25:48.118Z,99117.83
2018-09-05T02:28:16.497Z,99118.30
2018-09-05T02:30:44.767Z,99114.31
2018-09-05T02:33:13.121Z,99111.78
2018-09-05T02:35:41.482Z,99107.80
2018-09-05T02:38:09.841Z,99107.80
2018-09-05T02:40:38.240Z,99112.27
2018-09-05T02:43:06.858Z,99114.09
2018-09-05T02:45:35.130Z,99109.73
2018-09-05T02:48:03.425Z,99107.20
2018-09-05T02:50:31.694Z,99112.39
2018-09-05T02:53:00.014Z,99119.55
2018-09-05T02:55:33.698Z,99120.97
2018-09-05T02:58:02.024Z,99123.63
2018-09-05T03:00:30.321Z,99129.45
2018-09-05T03:02:58.670Z,99128.12
2018-09-05T03:05:26.956Z,99130.78
2018-09-05T03:07:55.302Z,99122.80
2018-09-05T03:10:23.634Z,99117.97
2018-09-05T03:12:52.514Z,99119.77
2018-09-05T03:15:20.834Z,99118.45
2018-09-05T03:17:49.143Z,99120.75
2018-09-05T03:20:17.441Z,99119.43
2018-09-05T03:22:45.767Z,99121.23
2018-09-05T03:25:14.058Z,99124.27
2018-09-05T03:27:42.318Z,99121.23
2018-09-05T03:30:10.899Z,99121.36
2018-09-05T03:32:39.411Z,99124.02
2018-09-05T03:35:07.763Z,99120.03
2018-09-05T03:37:36.057Z,99122.22
2018-09-05T03:40:04.426Z,99122.69
2018-09-05T03:42:32.694Z,99122.81
2018-09-05T03:45:01.050Z,99129.46
2018-09-05T03:47:29.610Z,99131.65
2018-09-05T03:49:57.998Z,99132.12
2018-09-05T03:52:26.533Z,99134.78
2018-09-05T03:54:55.795Z,99127.28
2018-09-05T03:57:24.097Z,99131.78
2018-09-05T03:59:52.526Z,99133.10
2018-09-05T04:02:20.855Z,99134.44
2018-09-05T04:04:49.156Z,99134.05
2018-09-05T04:07:17.447Z,99129.25
2018-09-05T04:09:45.755Z,99136.84
2018-09-05T04:12:14.094Z,99132.00
2018-09-05T04:14:42.346Z,99130.67
2018-09-05T04:17:10.650Z,99136.36
2018-09-05T04:19:38.957Z,99132.00
2018-09-05T04:22:07.336Z,99132.00
2018-09-05T04:24:35.606Z,99125.36
2018-09-05T04:27:03.927Z,99127.19
2018-09-05T04:29:32.251Z,99125.02
2018-09-05T04:32:00.541Z,99127.67
2018-09-05T04:34:28.818Z,99128.02
2018-09-05T04:36:57.092Z,99123.68
2018-09-05T04:39:25.495Z,99119.35
2018-09-05T04:41:53.803Z,99117.52
2018-09-05T04:44:22.118Z,99122.83
2018-09-05T04:46:50.415Z,99116.19
2018-09-05T04:49:18.749Z,99118.84
2018-09-05T04:51:47.057Z,99122.83
2018-09-05T04:54:15.341Z,99125.14
2018-09-05T04:56:43.662Z,99120.30
2018-09-05T04:59:12.014Z,99123.81
2018-09-05T05:01:40.278Z,99120.30
2018-09-05T05:04:08.599Z,99125.62
2018-09-05T05:06:36.958Z,99121.76
2018-09-05T05:09:08.363Z,99122.61
2018-09-05T05:11:36.670Z,99128.41
2018-09-05T05:14:05.045Z,99124.06
2018-09-05T05:16:33.403Z,99129.38
2018-09-05T05:19:01.674Z,99133.84
2018-09-05T05:21:29.991Z,99134.32
2018-09-05T05:23:58.328Z,99130.71
2018-09-05T05:26:56.037Z,99137.45
2018-09-05T05:29:24.321Z,99145.92
2018-09-05T05:31:52.635Z,99142.89
2018-09-05T05:34:20.970Z,99136.75
2018-09-05T05:36:49.299Z,99137.70
2018-09-05T05:39:17.594Z,99139.88
2018-09-05T05:41:45.939Z,99134.70
2018-09-05T05:44:14.225Z,99139.03
2018-09-05T05:46:42.576Z,99139.88
2018-09-05T05:49:10.883Z,99142.16
2018-09-05T05:51:39.266Z,99145.67
2018-09-05T05:54:14.094Z,99143.02
2018-09-05T05:56:42.431Z,99146.05
2018-09-05T05:59:10.714Z,99145.20
2018-09-05T06:01:39.055Z,99143.39
2018-09-05T06:04:07.417Z,99152.06
2018-09-05T06:06:35.732Z,99152.91
2018-09-05T06:09:05.669Z,99149.27
2018-09-05T06:11:33.980Z,99155.83
2018-09-05T06:14:02.290Z,99153.98
2018-09-05T06:16:30.582Z,99155.83
2018-09-05T06:18:58.914Z,99159.69
2018-09-05T06:21:27.230Z,99163.16
2018-09-05T06:23:55.603Z,99159.55
2018-09-05T06:26:23.875Z,99157.72
2018-09-05T06:28:52.179Z,99159.90
2018-09-05T06:31:20.860Z,99162.42
2018-09-05T06:33:48.973Z,99160.97
2018-09-05T06:36:17.299Z,99164.01
2018-09-05T06:38:45.589Z,99163.50
2018-09-05T06:41:13.887Z,99164.73
2018-09-05T06:43:42.172Z,99166.28
2018-09-05T06:46:10.519Z,99165.80
2018-09-05T06:48:38.925Z,99166.53
2018-09-05T06:51:08.462Z,99169.53
2018-09-05T06:53:38.949Z,99173.77
2018-09-05T06:56:08.245Z,99168.92
2018-09-05T06:58:37.018Z,99167.94
2018-09-05T07:01:05.359Z,99170.00
2018-09-05T07:03:33.790Z,99170.85
2018-09-05T07:06:02.104Z,99168.54
2018-09-05T07:08:30.475Z,99175.91
2018-09-05T07:10:58.812Z,99171.45
2018-09-05T07:13:27.250Z,99171.31
2018-09-05T07:15:55.610Z,99172.98
2018-09-05T07:18:23.950Z,99180.84
2018-09-05T07:20:52.250Z,99170.71
2018-09-05T07:23:20.540Z,99178.91
2018-09-05T07:25:49.222Z,99178.05
2018-09-05T07:28:17.522Z,99174.44
2018-09-05T07:30:45.871Z,99177.31
2018-09-05T07:33:14.162Z,99175.16
2018-09-05T07:35:42.566Z,99178.52
2018-09-05T07:38:10.942Z,99176.23
2018-09-05T07:40:39.268Z,99176.58
2018-09-05T07:43:07.571Z,99173.44
2018-09-05T07:45:35.847Z,99172.45
2018-09-05T07:48:04.466Z,99172.23
2018-09-05T07:50:33.107Z,99174.89
2018-09-05T07:53:01.484Z,99172.23
2018-09-05T07:55:29.778Z,99173.43
2018-09-05T07:57:58.203Z,99176.44
2018-09-05T08:00:26.522Z,99178.62
2018-09-05T08:02:54.885Z,99173.17
2018-09-05T08:05:23.188Z,99172.69
2018-09-05T08:07:51.519Z,99175.70
2018-09-05T08:10:19.795Z,99176.04
2018-09-05T08:12:48.081Z,99183.92
2018-09-05T08:15:16.386Z,99183.41
2018-09-05T08:17:44.803Z,99179.42
2018-09-05T08:20:13.113Z,99178.95
2018-09-05T08:22:41.642Z,99177.83
2018-09-05T08:25:09.933Z,99177.01
2018-09-05T08:27:38.247Z,99173.73
2018-09-05T08:30:06.764Z,99177.63
2018-09-05T08:32:35.167Z,99173.52
2018-09-05T08:35:03.603Z,99177.37
2018-09-05T08:37:32.059Z,99180.75
2018-09-05T08:40:00.119Z,99176.76
2018-09-05T08:42:32.599Z,99177.11
2018-09-05T08:45:01.597Z,99172.16
2018-09-05T08:47:30.181Z,99174.69
2018-09-05T08:49:58.930Z,99177.22
2018-09-05T08:52:27.266Z,99175.38
2018-09-05T08:54:55.648Z,99179.14
2018-09-05T08:57:24.051Z,99176.48
2018-09-05T08:59:52.372Z,99174.64
2018-09-05T09:02:20.651Z,99175.36
2018-09-05T09:04:49.023Z,99171.61
2018-09-05T09:07:17.329Z,99178.13
2018-09-05T09:09:45.615Z,99170.49
2018-09-05T09:12:13.882Z,99173.39
2018-09-05T09:14:42.227Z,99154.45
2018-09-05T09:17:10.519Z,99170.13
2018-09-05T09:19:38.862Z,99165.48
2018-09-05T09:22:07.243Z,99166.34
2018-09-05T09:24:35.689Z,99163.41
2018-09-05T09:27:04.029Z,99162.45
2018-09-05T09:29:32.379Z,99167.64
2018-09-05T09:32:00.753Z,99163.52
2018-09-05T09:34:29.139Z,99156.25
2018-09-05T09:36:57.638Z,99158.30
2018-09-05T09:39:25.958Z,99160.32
2018-09-05T09:41:54.231Z,99154.52
2018-09-05T09:44:22.524Z,99162.23
2018-09-05T09:46:50.890Z,99154.76
2018-09-05T09:49:19.482Z,99151.11
2018-09-05T09:51:47.831Z,99149.16
2018-09-05T09:54:16.115Z,99146.37
2018-09-05T09:56:44.510Z,99143.91
2018-09-05T09:59:12.850Z,99144.62
2018-09-05T10:03:47.601Z,99146.81
2018-09-05T10:06:25.951Z,99138.34
2018-09-05T10:08:59.723Z,99136.03
2018-09-05T10:11:33.195Z,99135.41
2018-09-05T10:14:06.946Z,99123.64
2018-09-05T10:16:41.151Z,99125.69
2018-09-05T10:19:11.118Z,99120.73
2018-09-05T10:21:39.511Z,99119.64
2018-09-05T10:24:07.830Z,99119.02
2018-09-05T10:26:36.219Z,99117.08
2018-09-05T10:29:04.570Z,99112.80
2018-09-05T10:31:32.891Z,99107.34
2018-09-05T10:34:01.183Z,99103.69
2018-09-05T10:36:29.474Z,99103.06
2018-09-05T10:38:57.773Z,99105.12
2018-09-05T10:41:26.078Z,99100.50
2018-09-05T10:43:54.424Z,99098.89
2018-09-05T10:46:22.934Z,99100.59
2018-09-05T10:48:51.232Z,99096.80
2018-09-05T10:51:23.746Z,99102.47
2018-09-05T10:53:52.078Z,99102.70
2018-09-05T10:56:20.361Z,99098.57
2018-09-05T10:58:48.714Z,99097.47
2018-09-05T11:01:17.074Z,99088.48
2018-09-05T11:03:45.746Z,99092.34
2018-09-05T11:06:14.049Z,99090.88
2018-09-05T11:08:42.359Z,99078.41
2018-09-05T11:11:10.701Z,99080.45
2018-09-05T11:13:39.026Z,99080.30
2018-09-05T11:16:07.318Z,99079.83
2018-09-05T11:18:35.594Z,99074.84
2018-09-05T11:21:03.919Z,99075.55
2018-09-05T11:23:32.191Z,99071.41
2018-09-05T11:26:00.597Z,99067.75
2018-09-05T11:28:28.894Z,99069.45
2018-09-05T11:30:57.178Z,99068.46
2018-09-05T11:33:26.335Z,99070.13
2018-09-05T11:35:54.629Z,99062.52
2018-09-05T11:38:22.919Z,99062.23
2018-09-05T11:40:51.242Z,99067.41
2018-09-05T11:43:19.676Z,99062.45
2018-09-05T11:45:48.002Z,99061.47
2018-09-05T11:48:16.390Z,99060.84
2018-09-05T11:50:44.734Z,99060.70
2018-09-05T11:53:13.115Z,99056.08
2018-09-05T11:55:41.413Z,99059.56
2018-09-05T11:58:09.690Z,99069.12
2018-09-05T12:00:38.011Z,99060.64
2018-09-05T12:03:06.323Z,99062.72
2018-09-05T12:05:34.623Z,99059.53
2018-09-05T12:08:02.985Z,99062.57
2018-09-05T12:10:31.368Z,99058.91
2018-09-05T12:13:00.439Z,99052.10
2018-09-05T12:15:29.484Z,99051.14
2018-09-05T12:17:57.762Z,99046.63
2018-09-05T12:20:26.123Z,99047.00
2018-09-05T12:22:54.424Z,99046.48
2018-09-05T12:25:22.838Z,99035.20
2018-09-05T12:27:51.179Z,99035.56
2018-09-05T12:30:19.486Z,99034.57
2018-09-05T12:32:47.869Z,99033.58
2018-09-05T12:35:16.399Z,99027.77
2018-09-05T12:37:44.819Z,99027.62
2018-09-05T12:40:13.407Z,99021.32
2018-09-05T12:42:41.708Z,99025.52
2018-09-05T12:45:10.367Z,99022.00
2018-09-05T12:47:38.748Z,99021.03
2018-09-05T12:50:07.095Z,99021.38
2018-09-05T12:52:35.373Z,99021.59
2018-09-05T12:55:03.693Z,99014.41
2018-09-05T12:57:32.497Z,99013.78
2018-09-05T13:00:00.839Z,99018.64
2018-09-05T13:02:29.384Z,99017.16
2018-09-05T13:04:57.700Z,99015.34
2018-09-05T13:07:26.025Z,99017.49
2018-09-05T13:09:54.562Z,99008.86
2018-09-05T13:12:23.170Z,99007.91
2018-09-05T13:14:51.578Z,99006.42
2018-09-05T13:17:20.122Z,99005.42
2018-09-05T13:19:48.421Z,99005.28
2018-09-05T13:22:16.724Z,99006.47
2018-09-05T13:24:45.074Z,99004.65
2018-09-05T13:27:13.402Z,99002.34
2018-09-05T13:29:41.714Z,99001.02
2018-09-05T13:32:10.266Z,98993.35
2018-09-05T13:34:38.572Z,98994.53
2018-09-05T13:37:06.897Z,98987.38
2018-09-05T13:39:36.122Z,98986.05
2018-09-05T13:42:04.649Z,98970.05
2018-09-05T13:44:32.930Z,98973.42
2018-09-05T13:47:01.315Z,98965.91
2018-09-05T13:49:29.854Z,98971.09
2018-09-05T13:52:04.090Z,98967.09
2018-09-05T13:54:33.359Z,98961.75
2018-09-05T13:57:01.807Z,98967.79
2018-09-05T13:59:30.775Z,98958.79
2018-09-05T14:01:59.126Z,98957.82
2018-09-05T14:04:27.394Z,98955.97
2018-09-05T14:06:55.876Z,98954.16
2018-09-05T14:09:24.150Z,98947.48
2018-09-05T14:11:52.470Z,98951.83
2018-09-05T14:14:20.761Z,98954.01
2018-09-05T14:16:49.145Z,98949.16
2018-09-05T14:19:17.447Z,98953.38
2018-09-05T14:21:46.010Z,98955.56
2018-09-05T14:24:14.312Z,98954.23
2018-09-05T14:26:42.786Z,98948.89
2018-09-05T14:29:11.133Z,98947.89
2018-09-05T14:31:39.868Z,98948.22
2018-09-05T14:34:08.149Z,98945.92
2018-09-05T14:36:36.514Z,98952.23
2018-09-05T14:39:07.643Z,98944.22
2018-09-05T14:41:36.131Z,98945.92
2018-09-05T14:44:04.463Z,98949.77
2018-09-05T14:46:32.806Z,98944.11
2018-09-05T14:49:01.146Z,98941.44
2018-09-05T14:51:29.783Z,98942.77
2018-09-05T14:53:58.193Z,98946.26
2018-09-05T14:56:26.603Z,98949.77
2018-09-05T14:58:55.083Z,98945.78
2018-09-05T15:01:23.521Z,98945.78
2018-09-05T15:03:52.018Z,98940.44
2018-09-05T15:06:20.444Z,98935.95
2018-09-05T15:08:48.746Z,98939.95
2018-09-05T15:11:17.309Z,98939.44
2018-09-05T15:13:45.675Z,98935.95
2018-09-05T15:16:14.009Z,98923.95
2018-09-05T15:18:42.494Z,98919.95
2018-09-05T15:21:11.014Z,98918.95
2018-09-05T15:23:39.342Z,98914.94
2018-09-05T15:26:07.909Z,98912.61
2018-09-05T15:28:36.226Z,98915.42
2018-09-05T15:31:04.691Z,98911.42
2018-09-05T15:33:33.042Z,98915.42
2018-09-05T15:36:01.428Z,98916.28
2018-09-05T15:38:29.710Z,98908.27
2018-09-05T15:40:57.999Z,98909.61
2018-09-05T15:43:26.353Z,98913.94
2018-09-05T15:45:54.791Z,98907.27
2018-09-05T15:48:23.254Z,98907.27
2018-09-05T15:50:51.723Z,98898.94
2018-09-05T15:53:20.035Z,98901.60
2018-09-05T15:55:48.338Z,98898.94
2018-09-05T15:58:16.727Z,98902.94
2018-09-05T16:00:45.042Z,98904.27
2018-09-05T16:03:13.346Z,98899.57
2018-09-05T16:05:41.648Z,98896.91
2018-09-05T16:08:09.982Z,98898.60
2018-09-05T16:10:38.965Z,98900.75
2018-09-05T16:13:07.427Z,98897.27
2018-09-05T16:15:35.826Z,98899.09
2018-09-05T16:18:04.214Z,98895.08
2018-09-05T16:20:32.815Z,98895.56
2018-09-05T16:23:01.119Z,98899.57
2018-09-05T16:25:29.439Z,98899.23
2018-09-05T16:27:57.847Z,98903.23
2018-09-05T16:30:26.359Z,98903.23
2018-09-05T16:32:54.921Z,98901.05
2018-09-05T16:35:23.310Z,98902.87
2018-09-05T16:37:51.586Z,98899.39
2018-09-05T16:40:19.862Z,98903.02
2018-09-05T16:42:48.163Z,98904.72
2018-09-05T16:45:16.603Z,98900.35
2018-09-05T16:47:44.914Z,98907.88
2018-09-05T16:50:13.278Z,98898.20
2018-09-05T16:52:41.828Z,98904.50
2018-09-05T16:55:10.122Z,98898.35
2018-09-05T16:57:38.417Z,98898.84
2018-09-05T17:00:06.980Z,98908.51
2018-09-05T17:02:35.386Z,98902.47
2018-09-05T17:05:03.715Z,98899.80
2018-09-05T17:07:32.074Z,98900.47
2018-09-05T17:10:00.482Z,98905.80
2018-09-05T17:12:28.798Z,98905.80
2018-09-05T17:14:57.241Z,98910.29
2018-09-05T17:17:25.546Z,98911.77
2018-09-05T17:19:53.955Z,98915.92
2018-09-05T17:22:22.954Z,98910.59
2018-09-05T17:24:51.292Z,98908.07
2018-09-05T17:27:19.695Z,98910.73
2018-09-05T17:29:48.162Z,98913.04
2018-09-05T17:32:16.449Z,98910.03
2018-09-05T17:34:44.871Z,98918.04
2018-09-05T17:37:13.278Z,98917.19
2018-09-05T17:39:41.555Z,98916.48
2018-09-05T17:42:09.850Z,98914.33
2018-09-05T17:44:38.150Z,98919.16
2018-09-05T17:47:06.491Z,98916.16
2018-09-05T17:49:34.863Z,98917.13
2018-09-05T17:52:03.233Z,98914.81
2018-09-05T17:54:31.550Z,98918.45
2018-09-05T17:56:59.831Z,98922.45
2018-09-05T17:59:28.285Z,98923.59
2018-09-05T18:01:56.714Z,98920.45
2018-09-05T18:04:25.863Z,98923.59
2018-09-05T18:06:54.270Z,98928.94
2018-09-05T18:09:22.649Z,98929.41
2018-09-05T18:11:50.955Z,98928.23
2018-09-05T18:14:19.302Z,98925.23
2018-09-05T18:16:47.842Z,98926.05
2018-09-05T18:19:16.299Z,98922.90
2018-09-05T18:21:44.638Z,98927.37
2018-09-05T18:24:13.079Z,98929.23
2018-09-05T18:26:41.399Z,98924.38
2018-09-05T18:29:09.987Z,98927.37
2018-09-05T18:31:38.394Z,98927.05
2018-09-05T18:34:06.759Z,98930.56
2018-09-05T18:36:35.066Z,98929.38
2018-09-05T18:39:03.507Z,98927.20
2018-09-05T18:41:31.783Z,98931.20
2018-09-05T18:44:00.202Z,98927.83
2018-09-05T18:46:28.770Z,98923.19
2018-09-05T18:48:57.213Z,98925.38
2018-09-05T18:51:25.485Z,98914.34
2018-09-05T18:53:53.843Z,98916.53
2018-09-05T18:56:22.418Z,98919.67
2018-09-05T18:58:50.737Z,98918.34
2018-09-05T19:01:19.078Z,98913.49
2018-09-05T19:03:47.410Z,98921.86
2018-09-05T19:06:15.705Z,98919.67
2018-09-05T19:08:44.010Z,98922.34
2018-09-05T19:11:12.322Z,98918.83
2018-09-05T19:13:40.590Z,98918.01
2018-09-05T19:16:08.977Z,98915.83
2018-09-05T19:18:37.283Z,98914.49
2018-09-05T19:21:05.721Z,98913.64
2018-09-05T19:23:34.502Z,98913.64
2018-09-05T19:26:02.885Z,98913.64
2018-09-05T19:28:32.215Z,98910.49
2018-09-05T19:31:00.510Z,98904.83
2018-09-05T19:33:28.803Z,98904.45
2018-09-05T19:35:57.082Z,98904.97
2018-09-05T19:38:25.430Z,98906.30
2018-09-05T19:40:53.834Z,98908.45
2018-09-05T19:43:22.093Z,98896.60
2018-09-05T19:45:50.378Z,98897.09
2018-09-05T19:48:18.694Z,98898.94
2018-09-05T19:50:47.074Z,98896.27
2018-09-05T19:53:15.363Z,98895.42
2018-09-05T19:55:43.674Z,98895.42
2018-09-05T19:58:11.949Z,98896.75
2018-09-05T20:00:40.269Z,98891.42
2018-09-05T20:03:08.578Z,98897.09
2018-09-05T20:05:36.990Z,98899.42
2018-09-05T20:08:05.614Z,98898.09
2018-09-05T20:10:33.962Z,98903.08
2018-09-05T20:13:02.278Z,98902.56
2018-09-05T20:15:30.791Z,98901.23
2018-09-05T20:17:59.093Z,98900.91
2018-09-05T20:20:27.382Z,98900.05
2018-09-05T20:22:55.833Z,98893.90
2018-09-05T20:25:24.210Z,98893.90
2018-09-05T20:27:52.750Z,98895.72
2018-09-05T20:30:21.150Z,98890.87
2018-09-05T20:32:49.467Z,98888.68
2018-09-05T20:35:17.783Z,98889.20
2018-09-05T20:37:46.074Z,98892.02
2018-09-05T20:40:14.376Z,98889.34
2018-09-05T20:42:42.678Z,98888.13
2018-09-05T20:45:11.481Z,98891.31
2018-09-05T20:47:39.745Z,98884.98
2018-09-05T20:50:08.044Z,98886.95
2018-09-05T20:52:36.391Z,98887.45
2018-09-05T20:55:04.686Z,98882.61
2018-09-05T20:57:32.978Z,98881.76
2018-09-05T21:00:01.316Z,98876.94
2018-09-05T21:02:29.741Z,98874.77
2018-09-05T21:04:58.081Z,98876.24
2018-09-05T21:07:26.418Z,98870.54
2018-09-05T21:09:54.698Z,98875.88
2018-09-05T21:12:22.994Z,98872.87
2018-09-05T21:14:51.330Z,98872.02
2018-09-05T21:17:19.634Z,98866.36
2018-09-05T21:19:47.938Z,98872.66
2018-09-05T21:22:17.393Z,98875.83
2018-09-05T21:24:45.695Z,98873.17
2018-09-05T21:27:13.970Z,98873.17
2018-09-05T21:29:42.262Z,98866.65
2018-09-05T21:32:10.541Z,98858.80
2018-09-05T21:34:38.994Z,98865.95
2018-09-05T21:37:07.366Z,98862.44
2018-09-05T21:39:35.666Z,98870.42
2018-09-05T21:42:03.947Z,98865.22
2018-09-05T21:44:32.238Z,98874.55
2018-09-05T21:47:00.602Z,98879.02
2018-09-05T21:49:28.902Z,98871.66
2018-09-05T21:51:57.230Z,98875.02
2018-09-05T21:54:25.706Z,98873.50
2018-09-05T21:56:54.062Z,98875.31
2018-09-05T21:59:22.363Z,98874.13
2018-09-05T22:01:50.741Z,98876.31
2018-09-05T22:04:19.030Z,98877.28
2018-09-05T22:06:47.330Z,98882.27
2018-09-05T22:09:15.599Z,98888.94
2018-09-05T22:11:43.934Z,98891.60
2018-09-05T22:14:12.218Z,98898.41
2018-09-05T22:16:40.537Z,98895.75
2018-09-05T22:19:08.819Z,98889.71
2018-09-05T22:21:37.101Z,98895.52
2018-09-05T22:24:05.370Z,98891.52
2018-09-05T22:26:33.655Z,98892.52
2018-09-05T22:29:01.930Z,98886.83
2018-09-05T22:31:30.314Z,98883.83
2018-09-05T22:33:58.597Z,98883.48
2018-09-05T22:36:26.907Z,98881.30
2018-09-05T22:38:55.198Z,98877.94
2018-09-05T22:41:23.478Z,98878.42
2018-09-05T22:44:02.986Z,98884.11
2018-09-05T22:46:42.395Z,98877.09
2018-09-05T22:53:33.059Z,98882.08
2018-09-05T22:56:21.531Z,98872.63
2018-09-05T22:58:59.255Z,98873.96
2018-09-05T23:02:13.948Z,98859.31
2018-09-05T23:04:53.979Z,98865.13
2018-09-05T23:07:32.155Z,98863.45
2018-09-05T23:10:11.675Z,98858.61
2018-09-05T23:12:51.203Z,98853.76
2018-09-05T23:17:36.408Z,98867.08
2018-09-05T23:20:14.643Z,98858.67
2018-09-05T23:22:54.102Z,98860.38
2018-09-05T23:25:22.371Z,98855.16
2018-09-05T23:27:51.455Z,98857.82
2018-09-05T23:30:19.731Z,98857.01
2018-09-05T23:32:48.039Z,98850.83
2018-09-05T23:35:16.391Z,98849.50
2018-09-05T23:37:44.671Z,98851.31
2018-09-05T23:40:13.019Z,98847.97
2018-09-05T23:42:41.307Z,98847.12
2018-09-05T23:45:09.607Z,98839.12
2018-09-05T23:47:37.930Z,98836.09
2018-09-05T23:50:06.562Z,98831.28
2018-09-05T23:52:34.859Z,98829.11
2018-09-05T23:55:03.146Z,98830.92
2018-09-05T23:57:31.504Z,98830.58
2018-09-05T23:59:59.790Z,98832.91
